createdAt,value
2019-01-31T00:01:37.174Z,17.53
2019-01-31T00:04:49.961Z,34.80
2019-01-31T00:08:15.377Z,33.00
2019-01-31T00:11:26.364Z,33.40
2019-01-31T00:14:37.347Z,54.10
2019-01-31T00:17:28.223Z,48.63
2019-01-31T00:20:34.410Z,57.03
2019-01-31T00:23:47.616Z,60.83
2019-01-31T00:26:45.478Z,58.03
2019-01-31T00:29:28.096Z,62.23
2019-01-31T00:33:04.017Z,56.70
2019-01-31T00:36:11.480Z,51.93
2019-01-31T00:39:12.380Z,68.80
2019-01-31T00:42:19.716Z,54.03
2019-01-31T00:45:19.680Z,50.27
2019-01-31T00:48:22.293Z,54.87
2019-01-31T00:51:11.008Z,56.93
2019-01-31T00:54:03.512Z,54.97
2019-01-31T00:56:43.652Z,47.93
2019-01-31T00:59:45.427Z,46.47
2019-01-31T01:03:17.993Z,38.33
2019-01-31T01:06:18.971Z,44.00
2019-01-31T01:09:41.405Z,45.60
2019-01-31T01:12:42.376Z,48.53
2019-01-31T01:15:59.990Z,53.07
2019-01-31T01:19:10.086Z,46.90
2019-01-31T01:22:08.102Z,46.17
2019-01-31T01:25:25.353Z,39.50
2019-01-31T01:29:04.192Z,52.03
2019-01-31T01:32:00.018Z,40.50
2019-01-31T01:35:00.928Z,40.23
2019-01-31T01:37:55.899Z,44.73
2019-01-31T01:40:53.319Z,54.13
2019-01-31T01:43:46.894Z,57.97
2019-01-31T01:46:39.264Z,50.30
2019-01-31T01:49:22.052Z,45.10
2019-01-31T01:52:19.384Z,44.13
2019-01-31T01:55:17.676Z,154.00
2019-01-31T01:58:22.391Z,152.47
2019-01-31T02:01:29.129Z,272.70
2019-01-31T02:04:10.646Z,133.57
2019-01-31T02:07:34.418Z,238.60
2019-01-31T02:10:38.033Z,223.70
2019-01-31T02:14:02.642Z,189.77
2019-01-31T02:17:03.963Z,334.50
2019-01-31T02:19:59.482Z,249.87
2019-01-31T02:23:32.328Z,224.30
2019-01-31T02:26:48.363Z,63.03
2019-01-31T02:29:47.028Z,74.60
2019-01-31T02:32:45.889Z,87.57
2019-01-31T02:35:36.134Z,66.30
2019-01-31T02:38:32.568Z,75.30
2019-01-31T02:41:44.138Z,155.37
2019-01-31T02:45:00.338Z,217.33
2019-01-31T02:48:00.234Z,280.70
2019-01-31T02:51:04.180Z,307.60
2019-01-31T02:54:08.281Z,67.97
2019-01-31T02:57:43.965Z,59.90
2019-01-31T03:01:03.488Z,159.17
2019-01-31T03:04:05.626Z,119.87
2019-01-31T03:07:25.375Z,213.77
2019-01-31T03:10:32.533Z,77.87
2019-01-31T03:13:40.370Z,169.27
2019-01-31T03:16:50.901Z,187.77
2019-01-31T03:19:55.399Z,152.77
2019-01-31T03:23:07.384Z,104.90
2019-01-31T03:26:00.535Z,97.40
2019-01-31T03:29:18.140Z,81.17
2019-01-31T03:32:18.283Z,128.17
2019-01-31T03:35:21.043Z,131.37
2019-01-31T03:38:32.586Z,160.10
2019-01-31T03:41:43.303Z,187.73
2019-01-31T03:44:22.389Z,163.67
2019-01-31T03:47:15.494Z,146.50
2019-01-31T03:50:38.741Z,141.13
2019-01-31T03:53:35.875Z,155.67
2019-01-31T03:56:35.970Z,191.63
2019-01-31T03:59:36.704Z,121.57
2019-01-31T04:02:46.930Z,271.57
2019-01-31T04:05:54.861Z,337.77
2019-01-31T04:08:25.543Z,176.10
2019-01-31T04:10:56.221Z,262.90
2019-01-31T04:13:27.040Z,286.90
2019-01-31T04:15:57.650Z,196.70
2019-01-31T04:18:28.149Z,125.77
2019-01-31T04:20:58.838Z,190.53
2019-01-31T04:23:29.422Z,111.33
2019-01-31T04:25:59.942Z,116.80
2019-01-31T04:28:30.938Z,245.77
2019-01-31T04:31:01.817Z,129.57
2019-01-31T04:33:32.467Z,163.90
2019-01-31T04:36:03.110Z,164.83
2019-01-31T04:38:33.859Z,117.03
2019-01-31T04:41:04.494Z,115.03
2019-01-31T04:43:35.108Z,114.70
2019-01-31T04:46:06.207Z,75.20
2019-01-31T04:48:36.707Z,227.10
2019-01-31T04:51:07.647Z,372.27
2019-01-31T04:53:38.292Z,291.27
2019-01-31T04:56:09.051Z,315.03
2019-01-31T04:58:39.826Z,226.00
2019-01-31T05:01:10.880Z,187.63
2019-01-31T05:03:41.561Z,147.20
2019-01-31T05:06:12.364Z,231.13
2019-01-31T05:08:43.013Z,205.93
2019-01-31T05:11:13.836Z,209.27
2019-01-31T05:13:44.729Z,157.33
2019-01-31T05:16:15.502Z,346.97
2019-01-31T05:18:46.029Z,366.77
2019-01-31T05:21:16.711Z,193.47
2019-01-31T05:23:47.529Z,138.37
2019-01-31T05:26:18.034Z,168.93
2019-01-31T05:28:48.753Z,164.97
2019-01-31T05:31:19.845Z,179.50
2019-01-31T05:33:50.519Z,246.03
2019-01-31T05:36:21.559Z,252.27
2019-01-31T05:38:52.325Z,347.13
2019-01-31T05:41:23.021Z,179.47
2019-01-31T05:43:53.569Z,115.27
2019-01-31T05:46:24.325Z,367.00
2019-01-31T05:48:54.817Z,90.67
2019-01-31T05:51:25.695Z,289.40
2019-01-31T05:53:56.403Z,231.77
2019-01-31T05:56:27.110Z,304.83
2019-01-31T05:58:57.972Z,195.13
2019-01-31T06:01:28.662Z,136.93
2019-01-31T06:03:59.175Z,154.77
2019-01-31T06:06:30.009Z,81.00
2019-01-31T06:09:00.820Z,120.53
2019-01-31T06:11:31.382Z,133.53
2019-01-31T06:14:02.075Z,393.07
2019-01-31T06:16:32.672Z,321.03
2019-01-31T06:19:03.175Z,257.23
2019-01-31T06:21:34.000Z,202.30
2019-01-31T06:24:04.939Z,112.83
2019-01-31T06:26:35.456Z,370.07
2019-01-31T06:29:06.175Z,241.80
2019-01-31T06:31:36.765Z,661.73
2019-01-31T06:34:07.472Z,438.17
2019-01-31T06:36:38.282Z,573.00
2019-01-31T06:39:10.306Z,563.30
2019-01-31T06:41:40.960Z,573.97
2019-01-31T06:44:11.520Z,356.37
2019-01-31T06:46:42.230Z,370.17
2019-01-31T06:49:12.961Z,379.43
2019-01-31T06:51:43.800Z,491.20
2019-01-31T06:54:14.406Z,83.27
2019-01-31T06:56:45.213Z,371.97
2019-01-31T06:59:16.270Z,120.13
2019-01-31T07:01:47.147Z,151.63
2019-01-31T07:04:17.716Z,133.47
2019-01-31T07:06:48.264Z,115.97
2019-01-31T07:09:19.008Z,75.73
2019-01-31T07:11:49.799Z,77.23
2019-01-31T07:14:20.620Z,60.83
2019-01-31T07:16:51.284Z,51.53
2019-01-31T07:19:21.850Z,59.10
2019-01-31T07:21:52.754Z,68.67
2019-01-31T07:24:23.320Z,63.97
2019-01-31T07:26:54.021Z,71.33
2019-01-31T07:29:24.693Z,69.47
2019-01-31T07:31:55.632Z,71.90
2019-01-31T07:34:26.533Z,65.20
2019-01-31T07:36:57.200Z,66.13
2019-01-31T07:39:27.794Z,62.10
2019-01-31T07:41:58.601Z,56.17
2019-01-31T07:44:29.295Z,56.97
2019-01-31T07:47:00.088Z,54.67
2019-01-31T07:49:30.606Z,55.67
2019-01-31T07:52:01.283Z,58.10
2019-01-31T07:54:31.966Z,57.83
2019-01-31T07:57:02.563Z,56.17
2019-01-31T07:59:33.392Z,54.03
2019-01-31T08:02:04.039Z,50.30
2019-01-31T08:04:34.525Z,54.40
2019-01-31T08:07:05.367Z,47.53
2019-01-31T08:09:36.238Z,65.73
2019-01-31T08:12:07.001Z,59.67
2019-01-31T08:14:37.951Z,56.53
2019-01-31T08:17:08.916Z,56.67
2019-01-31T08:19:39.475Z,61.77
2019-01-31T08:22:10.096Z,65.37
2019-01-31T08:24:40.618Z,59.90
2019-01-31T08:27:11.586Z,55.50
2019-01-31T08:29:42.239Z,47.43
2019-01-31T08:32:13.042Z,49.97
2019-01-31T08:34:43.914Z,49.03
2019-01-31T08:37:15.023Z,49.10
2019-01-31T08:39:46.024Z,43.00
2019-01-31T08:42:16.621Z,49.80
2019-01-31T08:44:47.285Z,52.37
2019-01-31T08:47:17.914Z,55.57
2019-01-31T08:49:48.463Z,50.83
2019-01-31T08:52:19.332Z,52.37
2019-01-31T08:54:49.957Z,50.13
2019-01-31T08:57:20.606Z,49.00
2019-01-31T08:59:51.220Z,50.97
2019-01-31T09:02:21.771Z,45.13
2019-01-31T09:04:52.386Z,50.97
2019-01-31T09:07:23.306Z,44.37
2019-01-31T09:09:54.315Z,49.37
2019-01-31T09:12:25.431Z,41.97
2019-01-31T09:14:56.496Z,47.03
2019-01-31T09:17:27.536Z,45.37
2019-01-31T09:19:57.982Z,47.43
2019-01-31T09:23:09.547Z,47.23
2019-01-31T09:26:11.649Z,43.80
2019-01-31T09:29:23.657Z,46.83
2019-01-31T09:32:16.692Z,42.43
2019-01-31T09:35:21.146Z,46.93
2019-01-31T09:38:53.712Z,40.17
2019-01-31T09:42:00.779Z,41.40
2019-01-31T09:45:01.456Z,39.53
2019-01-31T09:48:10.391Z,48.23
2019-01-31T09:51:16.873Z,51.33
2019-01-31T09:54:28.317Z,48.27
2019-01-31T09:57:31.000Z,43.20
2019-01-31T10:00:39.117Z,52.73
2019-01-31T10:03:58.907Z,60.47
2019-01-31T10:07:11.901Z,55.77
2019-01-31T10:10:25.752Z,62.23
2019-01-31T10:13:16.630Z,61.67
2019-01-31T10:16:25.455Z,56.53
2019-01-31T10:19:29.011Z,59.37
2019-01-31T10:22:40.702Z,59.50
2019-01-31T10:26:03.544Z,58.13
2019-01-31T10:29:27.592Z,58.67
2019-01-31T10:32:30.978Z,61.23
2019-01-31T10:35:19.012Z,53.80
2019-01-31T10:38:07.670Z,59.07
2019-01-31T10:41:17.444Z,63.73
2019-01-31T10:44:14.944Z,58.83
2019-01-31T10:47:32.670Z,58.43
2019-01-31T10:50:58.489Z,60.73
2019-01-31T10:54:20.837Z,56.83
2019-01-31T10:57:41.244Z,60.30
2019-01-31T11:00:45.358Z,60.97
2019-01-31T11:03:50.358Z,55.53
2019-01-31T11:06:47.085Z,58.07
2019-01-31T11:09:57.638Z,56.40
2019-01-31T11:13:00.184Z,58.37
2019-01-31T11:16:07.231Z,50.43
2019-01-31T11:19:11.795Z,54.07
2019-01-31T11:22:17.733Z,59.77
2019-01-31T11:25:05.163Z,56.00
2019-01-31T11:28:16.826Z,41.50
2019-01-31T11:31:09.387Z,48.53
2019-01-31T11:34:18.488Z,46.67
2019-01-31T11:37:08.233Z,43.80
2019-01-31T11:39:56.602Z,43.03
2019-01-31T11:42:58.297Z,41.40
2019-01-31T11:45:57.597Z,41.73
2019-01-31T11:48:43.034Z,53.90
2019-01-31T11:51:53.620Z,60.67
2019-01-31T11:55:03.904Z,48.43
2019-01-31T11:58:33.718Z,53.97
2019-01-31T12:01:06.791Z,55.83
2019-01-31T12:03:38.812Z,58.33
2019-01-31T12:06:09.703Z,57.33
2019-01-31T12:08:40.499Z,59.90
2019-01-31T12:11:11.455Z,60.93
2019-01-31T12:13:42.277Z,59.70
2019-01-31T12:16:12.921Z,58.53
2019-01-31T12:18:45.562Z,63.67
2019-01-31T12:21:16.053Z,62.80
2019-01-31T12:23:46.562Z,53.83
2019-01-31T12:26:17.392Z,59.80
2019-01-31T12:28:50.945Z,61.37
2019-01-31T12:31:21.118Z,63.43
2019-01-31T12:33:51.876Z,68.13
2019-01-31T12:36:22.841Z,62.50
2019-01-31T12:38:54.986Z,66.97
2019-01-31T12:41:26.293Z,66.90
2019-01-31T12:43:56.909Z,71.10
2019-01-31T12:46:27.746Z,73.83
2019-01-31T12:48:58.558Z,73.53
2019-01-31T12:51:29.109Z,73.07
2019-01-31T12:53:59.766Z,74.67
2019-01-31T12:56:30.905Z,75.97
2019-01-31T12:59:01.950Z,72.77
2019-01-31T13:01:32.850Z,64.37
2019-01-31T13:04:03.569Z,73.77
2019-01-31T13:06:34.626Z,78.83
2019-01-31T13:09:08.837Z,78.50
2019-01-31T13:11:40.092Z,71.23
2019-01-31T13:14:11.507Z,72.87
2019-01-31T13:16:42.565Z,80.03
2019-01-31T13:19:13.775Z,81.07
2019-01-31T13:21:44.427Z,80.60
2019-01-31T13:24:15.178Z,81.83
2019-01-31T13:26:46.315Z,87.20
2019-01-31T13:29:17.350Z,87.23
2019-01-31T13:31:48.264Z,92.93
2019-01-31T13:34:19.638Z,88.33
2019-01-31T13:36:50.735Z,90.57
2019-01-31T13:39:21.620Z,104.63
2019-01-31T13:41:52.471Z,100.33
2019-01-31T13:44:24.694Z,99.53
2019-01-31T13:46:55.655Z,104.73
2019-01-31T13:49:26.746Z,90.70
2019-01-31T13:51:57.271Z,99.83
2019-01-31T13:54:28.321Z,93.17
2019-01-31T13:56:59.168Z,94.40
2019-01-31T13:59:30.259Z,103.90
2019-01-31T14:02:01.503Z,87.33
2019-01-31T14:04:32.509Z,82.87
2019-01-31T14:07:03.351Z,82.73
2019-01-31T14:09:34.200Z,79.83
2019-01-31T14:12:05.028Z,83.80
2019-01-31T14:14:37.177Z,81.47
2019-01-31T14:17:08.099Z,90.87
2019-01-31T14:19:38.987Z,88.53
2019-01-31T14:22:09.560Z,98.80
2019-01-31T14:24:40.156Z,86.70
2019-01-31T14:27:11.150Z,86.37
2019-01-31T14:29:42.173Z,84.67
2019-01-31T14:32:15.622Z,82.13
2019-01-31T14:34:47.061Z,85.63
2019-01-31T14:37:18.365Z,82.07
2019-01-31T14:39:49.381Z,86.50
2019-01-31T14:42:20.341Z,98.27
2019-01-31T14:44:51.420Z,90.40
2019-01-31T14:47:22.727Z,94.67
2019-01-31T14:50:15.650Z,91.13
2019-01-31T14:52:46.897Z,77.40
2019-01-31T14:55:17.805Z,82.73
2019-01-31T14:57:49.097Z,79.30
2019-01-31T15:00:22.880Z,80.23
2019-01-31T15:02:53.822Z,70.17
2019-01-31T15:05:24.581Z,76.60
2019-01-31T15:07:55.672Z,70.10
2019-01-31T15:10:28.353Z,71.07
2019-01-31T15:12:59.459Z,70.03
2019-01-31T15:15:30.592Z,74.63
2019-01-31T15:18:01.398Z,70.87
2019-01-31T15:20:38.471Z,72.03
2019-01-31T15:23:09.596Z,68.30
2019-01-31T15:25:40.144Z,82.37
2019-01-31T15:28:11.337Z,87.27
2019-01-31T15:30:42.597Z,79.73
2019-01-31T15:33:14.894Z,77.80
2019-01-31T15:35:46.367Z,73.10
2019-01-31T15:38:17.399Z,79.07
2019-01-31T15:40:50.386Z,83.00
2019-01-31T15:43:21.254Z,74.70
2019-01-31T15:45:51.877Z,80.97
2019-01-31T15:48:22.977Z,108.63
2019-01-31T15:50:53.604Z,104.80
2019-01-31T15:53:24.772Z,84.57
2019-01-31T15:55:56.058Z,81.47
2019-01-31T15:58:27.088Z,85.43
2019-01-31T16:00:58.874Z,82.97
2019-01-31T16:03:29.630Z,71.37
2019-01-31T16:06:00.852Z,66.43
2019-01-31T16:08:31.675Z,72.17
2019-01-31T16:11:02.972Z,73.67
2019-01-31T16:13:34.247Z,74.90
2019-01-31T16:16:05.703Z,79.00
2019-01-31T16:18:36.624Z,79.30
2019-01-31T16:21:07.463Z,81.53
2019-01-31T16:23:38.191Z,75.70
2019-01-31T16:26:09.254Z,84.27
2019-01-31T16:28:39.908Z,93.07
2019-01-31T16:31:11.394Z,88.93
2019-01-31T16:33:42.638Z,93.93
2019-01-31T16:36:13.589Z,97.03
2019-01-31T16:38:44.588Z,103.23
2019-01-31T16:41:17.357Z,98.57
2019-01-31T16:43:47.833Z,99.37
2019-01-31T16:46:18.841Z,103.47
2019-01-31T16:48:49.351Z,101.87
2019-01-31T16:51:19.961Z,94.20
2019-01-31T16:53:51.108Z,110.53
2019-01-31T16:56:22.193Z,103.03
2019-01-31T16:58:53.569Z,101.67
2019-01-31T17:01:24.546Z,107.10
2019-01-31T17:03:55.074Z,114.80
2019-01-31T17:06:26.090Z,108.73
2019-01-31T17:08:56.799Z,105.97
2019-01-31T17:11:27.818Z,112.93
2019-01-31T17:13:58.914Z,112.50
2019-01-31T17:16:29.919Z,112.00
2019-01-31T17:19:00.615Z,99.23
2019-01-31T17:21:31.192Z,84.50
2019-01-31T17:24:01.883Z,89.87
2019-01-31T17:26:32.450Z,88.23
2019-01-31T17:29:03.087Z,89.90
2019-01-31T17:31:33.949Z,85.37
2019-01-31T17:34:04.761Z,78.33
2019-01-31T17:36:35.800Z,80.03
2019-01-31T17:39:10.015Z,71.23
2019-01-31T17:41:42.235Z,71.93
2019-01-31T17:44:14.306Z,72.33
2019-01-31T17:46:46.930Z,75.20
2019-01-31T17:49:19.071Z,65.07
2019-01-31T17:51:51.243Z,65.77
2019-01-31T17:54:23.949Z,66.10
2019-01-31T17:56:58.345Z,70.30
2019-01-31T17:59:32.248Z,70.80
2019-01-31T18:02:04.264Z,73.33
2019-01-31T18:04:54.587Z,76.13
2019-01-31T18:07:26.343Z,71.40
2019-01-31T18:09:57.435Z,82.03
2019-01-31T18:12:29.350Z,63.80
2019-01-31T18:15:02.501Z,60.13
2019-01-31T18:17:34.432Z,46.90
2019-01-31T18:20:07.519Z,57.43
2019-01-31T18:22:39.647Z,61.50
2019-01-31T18:25:12.042Z,59.90
2019-01-31T18:28:02.750Z,60.77
2019-01-31T18:30:43.888Z,61.13
2019-01-31T18:33:14.679Z,29.80
2019-01-31T18:35:46.979Z,17.67
2019-01-31T18:38:19.154Z,12.70
2019-01-31T18:40:51.445Z,4.27
2019-01-31T18:43:23.035Z,1.93
2019-01-31T18:45:55.550Z,2.30
2019-01-31T18:48:28.008Z,1.40
2019-01-31T18:51:00.886Z,2.67
2019-01-31T18:53:32.874Z,1.33
2019-01-31T18:56:05.667Z,1.67
2019-01-31T18:58:36.928Z,2.27
2019-01-31T19:01:08.128Z,1.70
2019-01-31T19:03:39.015Z,2.00
2019-01-31T19:06:09.972Z,1.47
2019-01-31T19:08:40.876Z,1.57
2019-01-31T19:11:11.857Z,1.33
2019-01-31T19:13:42.788Z,1.33
2019-01-31T19:16:14.311Z,3.50
2019-01-31T19:18:45.322Z,2.40
2019-01-31T19:21:15.990Z,1.70
2019-01-31T19:23:46.824Z,2.40
2019-01-31T19:26:17.966Z,1.87
2019-01-31T19:28:49.068Z,1.90
2019-01-31T19:31:19.879Z,1.30
2019-01-31T19:33:51.790Z,1.50
2019-01-31T19:36:23.102Z,1.63
2019-01-31T19:39:17.506Z,2.17
2019-01-31T19:41:48.649Z,1.37
2019-01-31T19:44:19.224Z,1.93
2019-01-31T19:46:50.193Z,1.70
2019-01-31T19:49:20.964Z,3.50
2019-01-31T19:51:51.643Z,2.57
2019-01-31T19:54:22.819Z,1.60
2019-01-31T19:56:53.582Z,2.50
2019-01-31T19:59:24.412Z,2.87
2019-01-31T20:01:55.447Z,2.70
2019-01-31T20:04:25.963Z,2.70
2019-01-31T20:06:56.904Z,2.63
2019-01-31T20:09:29.418Z,2.63
2019-01-31T20:12:00.547Z,2.40
2019-01-31T20:14:31.646Z,2.80
2019-01-31T20:17:03.198Z,3.80
2019-01-31T20:19:34.139Z,3.33
2019-01-31T20:22:04.987Z,3.00
2019-01-31T20:24:35.976Z,3.87
2019-01-31T20:27:08.419Z,2.73
2019-01-31T20:29:39.148Z,3.37
2019-01-31T20:32:10.119Z,2.37
2019-01-31T20:34:41.260Z,3.60
2019-01-31T20:37:12.581Z,2.77
2019-01-31T20:39:43.404Z,2.63
2019-01-31T20:42:14.233Z,3.00
2019-01-31T20:44:45.222Z,2.27
2019-01-31T20:47:16.272Z,3.50
2019-01-31T20:49:46.831Z,3.20
2019-01-31T20:52:36.273Z,2.67
2019-01-31T20:55:08.708Z,2.03
2019-01-31T20:57:39.775Z,3.23
2019-01-31T21:00:18.935Z,2.60
2019-01-31T21:02:49.633Z,2.37
2019-01-31T21:05:20.719Z,2.40
2019-01-31T21:07:52.374Z,2.00
2019-01-31T21:10:26.256Z,7.03
2019-01-31T21:12:55.819Z,2.50
2019-01-31T21:15:27.018Z,2.63
2019-01-31T21:17:58.219Z,3.87
2019-01-31T21:20:29.438Z,4.17
2019-01-31T21:23:00.087Z,4.73
2019-01-31T21:25:34.142Z,4.07
2019-01-31T21:28:03.738Z,4.23
2019-01-31T21:30:37.370Z,5.47
2019-01-31T21:33:08.654Z,5.67
2019-01-31T21:35:39.850Z,4.90
2019-01-31T21:38:11.308Z,5.70
2019-01-31T21:40:42.309Z,4.23
2019-01-31T21:43:12.890Z,4.03
2019-01-31T21:45:43.519Z,3.20
2019-01-31T21:48:14.498Z,4.17
2019-01-31T21:50:45.300Z,6.13
2019-01-31T21:53:16.237Z,3.93
2019-01-31T21:55:47.275Z,3.13
2019-01-31T21:58:18.373Z,3.90
2019-01-31T22:00:49.407Z,4.03
2019-01-31T22:03:19.952Z,4.93
2019-01-31T22:05:50.907Z,4.23
2019-01-31T22:08:21.642Z,5.47
2019-01-31T22:10:52.713Z,3.13
2019-01-31T22:13:23.675Z,4.57
2019-01-31T22:15:54.404Z,3.80
2019-01-31T22:18:25.297Z,4.00
2019-01-31T22:20:56.388Z,3.50
2019-01-31T22:23:27.097Z,4.43
2019-01-31T22:25:57.868Z,5.20
2019-01-31T22:28:29.022Z,2.70
2019-01-31T22:31:00.096Z,4.00
2019-01-31T22:33:31.127Z,3.03
2019-01-31T22:36:02.319Z,3.13
2019-01-31T22:38:33.485Z,4.37
2019-01-31T22:41:04.743Z,3.27
2019-01-31T22:43:35.401Z,2.60
2019-01-31T22:46:06.612Z,4.40
2019-01-31T22:48:37.381Z,3.67
2019-01-31T22:51:08.383Z,3.87
2019-01-31T22:53:39.293Z,3.97
2019-01-31T22:56:10.112Z,2.10
2019-01-31T22:58:40.962Z,2.97
2019-01-31T23:01:28.547Z,3.03
2019-01-31T23:03:59.265Z,4.03
2019-01-31T23:06:30.102Z,3.63
2019-01-31T23:09:01.278Z,2.83
2019-01-31T23:11:32.200Z,4.97
2019-01-31T23:14:02.974Z,3.30
2019-01-31T23:16:34.152Z,4.63
2019-01-31T23:19:05.886Z,3.97
2019-01-31T23:21:36.508Z,4.70
2019-01-31T23:24:07.490Z,3.70
2019-01-31T23:26:38.654Z,2.83
2019-01-31T23:29:09.709Z,5.30
2019-01-31T23:31:40.865Z,4.30
2019-01-31T23:34:11.777Z,3.43
2019-01-31T23:36:42.664Z,3.53
2019-01-31T23:39:13.830Z,4.23
2019-01-31T23:41:44.606Z,3.43
2019-01-31T23:44:15.210Z,4.30
2019-01-31T23:46:45.989Z,4.57
2019-01-31T23:49:16.718Z,3.77
2019-01-31T23:51:47.238Z,4.37
2019-01-31T23:54:18.310Z,5.00
2019-01-31T23:56:48.868Z,5.33
2019-01-31T23:59:19.559Z,3.07
